sensor_id;sensor_type;location;lat;lon;timestamp;pressure;altitude;pressure_sealevel;temperature;humidity
65384;BME280;51986;52.788;41.368;2023-07-29T00:01:22;97790.38;;;22.27;64.95
65384;BME280;51986;52.788;41.368;2023-07-29T00:03:49;97791.66;;;22.20;65.09
65384;BME280;51986;52.788;41.368;2023-07-29T00:06:16;97803.72;;;22.14;65.83
65384;BME280;51986;52.788;41.368;2023-07-29T00:08:43;97791.22;;;22.16;66.16
65384;BME280;51986;52.788;41.368;2023-07-29T00:11:11;97771.97;;;22.12;66.62
65384;BME280;51986;52.788;41.368;2023-07-29T00:13:38;97782.47;;;22.10;66.53
65384;BME280;51986;52.788;41.368;2023-07-29T00:16:05;97745.38;;;22.14;66.28
65384;BME280;51986;52.788;41.368;2023-07-29T00:18:32;97755.44;;;22.08;66.61
65384;BME280;51986;52.788;41.368;2023-07-29T00:20:59;97755.69;;;21.86;67.65
65384;BME280;51986;52.788;41.368;2023-07-29T00:23:27;97769.84;;;22.05;67.23
65384;BME280;51986;52.788;41.368;2023-07-29T00:25:54;97762.00;;;22.07;67.12
65384;BME280;51986;52.788;41.368;2023-07-29T00:28:21;97742.88;;;22.16;66.79
65384;BME280;51986;52.788;41.368;2023-07-29T00:30:49;97740.19;;;22.16;66.79
65384;BME280;51986;52.788;41.368;2023-07-29T00:33:16;97732.38;;;22.18;66.41
65384;BME280;51986;52.788;41.368;2023-07-29T00:35:43;97734.25;;;22.23;66.82
65384;BME280;51986;52.788;41.368;2023-07-29T00:38:10;97733.09;;;22.19;66.64
65384;BME280;51986;52.788;41.368;2023-07-29T00:40:37;97725.91;;;22.27;66.34
65384;BME280;51986;52.788;41.368;2023-07-29T00:43:04;97751.25;;;22.32;66.40
65384;BME280;51986;52.788;41.368;2023-07-29T00:45:32;97734.34;;;22.37;66.59
65384;BME280;51986;52.788;41.368;2023-07-29T00:48:00;97719.22;;;22.34;66.60
65384;BME280;51986;52.788;41.368;2023-07-29T00:50:29;97699.91;;;22.16;66.37
65384;BME280;51986;52.788;41.368;2023-07-29T00:52:59;97725.22;;;22.40;66.07
65384;BME280;51986;52.788;41.368;2023-07-29T00:55:26;97708.63;;;22.41;65.68
65384;BME280;51986;52.788;41.368;2023-07-29T00:57:54;97726.47;;;22.39;66.09
65384;BME280;51986;52.788;41.368;2023-07-29T01:00:21;97712.69;;;22.29;66.25
65384;BME280;51986;52.788;41.368;2023-07-29T01:02:49;97727.94;;;22.40;66.11
65384;BME280;51986;52.788;41.368;2023-07-29T01:05:16;97723.59;;;22.37;66.26
65384;BME280;51986;52.788;41.368;2023-07-29T01:08:06;97709.91;;;22.35;65.92
65384;BME280;51986;52.788;41.368;2023-07-29T01:10:54;97709.81;;;22.27;66.25
65384;BME280;51986;52.788;41.368;2023-07-29T01:13:43;97712.97;;;22.25;66.22
65384;BME280;51986;52.788;41.368;2023-07-29T01:16:17;97716.03;;;22.16;66.62
65384;BME280;51986;52.788;41.368;2023-07-29T01:18:48;97691.66;;;22.14;66.20
65384;BME280;51986;52.788;41.368;2023-07-29T01:21:19;97683.38;;;22.12;65.84
65384;BME280;51986;52.788;41.368;2023-07-29T01:23:46;97697.59;;;22.26;66.28
65384;BME280;51986;52.788;41.368;2023-07-29T01:26:13;97681.69;;;22.28;65.66
65384;BME280;51986;52.788;41.368;2023-07-29T01:28:40;97695.47;;;22.38;65.55
65384;BME280;51986;52.788;41.368;2023-07-29T01:31:15;97692.53;;;22.22;65.61
65384;BME280;51986;52.788;41.368;2023-07-29T01:33:51;97719.78;;;22.08;65.84
65384;BME280;51986;52.788;41.368;2023-07-29T01:36:22;97721.53;;;22.05;66.41
65384;BME280;51986;52.788;41.368;2023-07-29T01:38:54;97722.16;;;22.11;66.27
65384;BME280;51986;52.788;41.368;2023-07-29T01:41:24;97751.09;;;22.24;65.98
65384;BME280;51986;52.788;41.368;2023-07-29T01:43:52;97737.50;;;22.16;65.97
65384;BME280;51986;52.788;41.368;2023-07-29T01:46:20;97733.09;;;22.19;65.81
65384;BME280;51986;52.788;41.368;2023-07-29T01:48:47;97744.47;;;22.25;65.75
65384;BME280;51986;52.788;41.368;2023-07-29T01:51:14;97741.00;;;22.30;65.86
65384;BME280;51986;52.788;41.368;2023-07-29T01:53:41;97740.44;;;22.18;65.85
65384;BME280;51986;52.788;41.368;2023-07-29T01:56:08;97750.56;;;22.25;66.31
65384;BME280;51986;52.788;41.368;2023-07-29T01:58:39;97770.63;;;22.24;66.33
65384;BME280;51986;52.788;41.368;2023-07-29T02:01:06;97753.25;;;22.25;66.45
65384;BME280;51986;52.788;41.368;2023-07-29T02:03:33;97751.16;;;22.18;66.56
65384;BME280;51986;52.788;41.368;2023-07-29T02:08:27;97727.63;;;22.05;66.83
65384;BME280;51986;52.788;41.368;2023-07-29T02:10:54;97732.03;;;21.84;67.78
65384;BME280;51986;52.788;41.368;2023-07-29T02:15:48;97764.03;;;22.01;67.35
65384;BME280;51986;52.788;41.368;2023-07-29T02:18:15;97746.81;;;22.15;66.93
65384;BME280;51986;52.788;41.368;2023-07-29T02:20:42;97767.28;;;22.18;66.31
65384;BME280;51986;52.788;41.368;2023-07-29T02:23:08;97739.34;;;22.27;66.23
65384;BME280;51986;52.788;41.368;2023-07-29T02:25:36;97721.56;;;22.24;65.76
65384;BME280;51986;52.788;41.368;2023-07-29T02:28:03;97718.28;;;22.31;64.89
65384;BME280;51986;52.788;41.368;2023-07-29T02:30:30;97741.94;;;22.33;64.56
65384;BME280;51986;52.788;41.368;2023-07-29T02:32:57;97768.88;;;22.27;63.02
65384;BME280;51986;52.788;41.368;2023-07-29T02:35:24;97787.25;;;21.98;63.65
65384;BME280;51986;52.788;41.368;2023-07-29T02:37:51;97802.75;;;21.87;63.79
65384;BME280;51986;52.788;41.368;2023-07-29T02:40:21;97772.94;;;21.90;63.23
65384;BME280;51986;52.788;41.368;2023-07-29T02:42:48;97813.28;;;21.85;63.75
65384;BME280;51986;52.788;41.368;2023-07-29T02:45:15;97798.19;;;21.57;65.86
65384;BME280;51986;52.788;41.368;2023-07-29T02:47:42;97807.56;;;21.45;66.96
65384;BME280;51986;52.788;41.368;2023-07-29T02:50:09;97803.09;;;21.53;66.71
65384;BME280;51986;52.788;41.368;2023-07-29T02:52:36;97799.69;;;21.77;65.92
65384;BME280;51986;52.788;41.368;2023-07-29T02:55:04;97800.41;;;21.77;65.68
65384;BME280;51986;52.788;41.368;2023-07-29T02:57:31;97795.94;;;21.86;65.11
65384;BME280;51986;52.788;41.368;2023-07-29T02:59:58;97829.06;;;21.94;64.66
65384;BME280;51986;52.788;41.368;2023-07-29T03:02:25;97782.03;;;22.06;64.19
65384;BME280;51986;52.788;41.368;2023-07-29T03:04:52;97793.84;;;22.22;63.48
65384;BME280;51986;52.788;41.368;2023-07-29T03:07:19;97771.34;;;22.25;62.69
65384;BME280;51986;52.788;41.368;2023-07-29T03:09:46;97767.66;;;22.28;62.76
65384;BME280;51986;52.788;41.368;2023-07-29T03:12:13;97812.72;;;22.54;62.34
65384;BME280;51986;52.788;41.368;2023-07-29T03:14:40;97820.28;;;22.37;63.07
65384;BME280;51986;52.788;41.368;2023-07-29T03:17:07;97822.19;;;22.42;62.34
65384;BME280;51986;52.788;41.368;2023-07-29T03:19:34;97822.63;;;22.65;62.02
65384;BME280;51986;52.788;41.368;2023-07-29T03:22:01;97814.34;;;22.63;62.38
65384;BME280;51986;52.788;41.368;2023-07-29T03:24:28;97811.06;;;22.51;62.58
65384;BME280;51986;52.788;41.368;2023-07-29T03:26:55;97786.31;;;22.39;62.99
65384;BME280;51986;52.788;41.368;2023-07-29T03:29:22;97772.66;;;22.37;62.82
65384;BME280;51986;52.788;41.368;2023-07-29T03:31:49;97812.22;;;22.37;63.51
65384;BME280;51986;52.788;41.368;2023-07-29T03:34:16;97828.47;;;22.25;64.13
65384;BME280;51986;52.788;41.368;2023-07-29T03:36:46;97805.19;;;22.09;64.35
65384;BME280;51986;52.788;41.368;2023-07-29T03:39:14;97800.75;;;22.12;64.25
65384;BME280;51986;52.788;41.368;2023-07-29T03:41:41;97810.91;;;22.00;64.98
65384;BME280;51986;52.788;41.368;2023-07-29T03:44:08;97812.81;;;22.05;64.92
65384;BME280;51986;52.788;41.368;2023-07-29T03:46:35;97813.25;;;22.09;64.73
65384;BME280;51986;52.788;41.368;2023-07-29T03:49:04;97853.66;;;21.98;65.64
65384;BME280;51986;52.788;41.368;2023-07-29T03:51:31;97829.84;;;21.89;65.03
65384;BME280;51986;52.788;41.368;2023-07-29T03:53:58;97814.66;;;21.91;64.97
65384;BME280;51986;52.788;41.368;2023-07-29T03:56:25;97838.41;;;22.06;65.02
65384;BME280;51986;52.788;41.368;2023-07-29T03:58:53;97835.25;;;22.32;63.75
65384;BME280;51986;52.788;41.368;2023-07-29T04:01:20;97848.38;;;22.36;63.40
65384;BME280;51986;52.788;41.368;2023-07-29T04:03:47;97858.47;;;22.29;64.02
65384;BME280;51986;52.788;41.368;2023-07-29T04:06:15;97850.53;;;22.18;64.13
65384;BME280;51986;52.788;41.368;2023-07-29T04:08:41;97830.66;;;22.27;63.74
65384;BME280;51986;52.788;41.368;2023-07-29T04:11:08;97835.69;;;22.36;63.42
65384;BME280;51986;52.788;41.368;2023-07-29T04:13:36;97841.19;;;22.44;63.10
65384;BME280;51986;52.788;41.368;2023-07-29T04:16:04;97831.06;;;22.12;63.92
65384;BME280;51986;52.788;41.368;2023-07-29T04:18:31;97789.84;;;21.85;64.29
65384;BME280;51986;52.788;41.368;2023-07-29T04:20:58;97835.53;;;22.04;63.70
65384;BME280;51986;52.788;41.368;2023-07-29T04:23:25;97825.06;;;22.00;63.80
65384;BME280;51986;52.788;41.368;2023-07-29T04:25:52;97855.25;;;22.06;64.51
65384;BME280;51986;52.788;41.368;2023-07-29T04:28:20;97800.75;;;22.17;63.71
65384;BME280;51986;52.788;41.368;2023-07-29T04:30:47;97813.94;;;22.15;63.92
65384;BME280;51986;52.788;41.368;2023-07-29T04:33:14;97806.34;;;22.38;63.26
65384;BME280;51986;52.788;41.368;2023-07-29T04:35:41;97817.81;;;22.39;63.10
65384;BME280;51986;52.788;41.368;2023-07-29T04:38:08;97806.13;;;22.55;63.01
65384;BME280;51986;52.788;41.368;2023-07-29T04:40:35;97800.72;;;22.74;61.69
65384;BME280;51986;52.788;41.368;2023-07-29T04:43:02;97784.59;;;22.74;61.84
65384;BME280;51986;52.788;41.368;2023-07-29T04:45:29;97773.00;;;22.66;61.82
65384;BME280;51986;52.788;41.368;2023-07-29T04:47:58;97764.75;;;22.96;61.81
65384;BME280;51986;52.788;41.368;2023-07-29T04:50:25;97788.28;;;23.09;61.01
65384;BME280;51986;52.788;41.368;2023-07-29T04:52:52;97754.06;;;23.36;60.02
65384;BME280;51986;52.788;41.368;2023-07-29T04:55:19;97755.34;;;23.88;58.46
65384;BME280;51986;52.788;41.368;2023-07-29T04:57:46;97764.41;;;24.38;56.89
65384;BME280;51986;52.788;41.368;2023-07-29T05:00:13;97742.97;;;24.66;56.09
65384;BME280;51986;52.788;41.368;2023-07-29T05:02:40;97765.72;;;24.78;55.51
65384;BME280;51986;52.788;41.368;2023-07-29T05:05:07;97775.00;;;24.91;55.10
65384;BME280;51986;52.788;41.368;2023-07-29T05:07:35;97811.22;;;24.61;55.47
65384;BME280;51986;52.788;41.368;2023-07-29T05:10:02;97792.88;;;24.80;55.53
65384;BME280;51986;52.788;41.368;2023-07-29T05:12:34;97797.06;;;24.68;55.76
65384;BME280;51986;52.788;41.368;2023-07-29T05:15:01;97758.59;;;24.47;55.03
65384;BME280;51986;52.788;41.368;2023-07-29T05:17:28;97793.53;;;24.73;55.17
65384;BME280;51986;52.788;41.368;2023-07-29T05:19:55;97770.69;;;24.74;55.03
65384;BME280;51986;52.788;41.368;2023-07-29T05:22:22;97756.50;;;24.53;55.54
65384;BME280;51986;52.788;41.368;2023-07-29T05:24:49;97791.72;;;24.55;56.28
65384;BME280;51986;52.788;41.368;2023-07-29T05:27:16;97774.97;;;24.36;56.92
65384;BME280;51986;52.788;41.368;2023-07-29T05:29:43;97812.72;;;24.36;57.35
65384;BME280;51986;52.788;41.368;2023-07-29T05:32:10;97815.28;;;24.41;56.73
65384;BME280;51986;52.788;41.368;2023-07-29T05:34:37;97836.03;;;24.20;57.67
65384;BME280;51986;52.788;41.368;2023-07-29T05:37:05;97851.28;;;24.30;57.11
65384;BME280;51986;52.788;41.368;2023-07-29T05:39:33;97848.78;;;24.19;57.40
65384;BME280;51986;52.788;41.368;2023-07-29T05:42:00;97848.88;;;24.00;58.34
65384;BME280;51986;52.788;41.368;2023-07-29T05:44:27;97861.41;;;23.98;58.66
65384;BME280;51986;52.788;41.368;2023-07-29T05:46:54;97861.41;;;23.71;60.13
65384;BME280;51986;52.788;41.368;2023-07-29T05:49:21;97841.72;;;23.76;59.75
65384;BME280;51986;52.788;41.368;2023-07-29T05:51:49;97849.19;;;23.83;60.00
65384;BME280;51986;52.788;41.368;2023-07-29T05:54:18;97837.59;;;23.75;60.23
65384;BME280;51986;52.788;41.368;2023-07-29T05:56:45;97834.47;;;23.71;60.53
65384;BME280;51986;52.788;41.368;2023-07-29T05:59:12;97849.44;;;23.53;61.20
65384;BME280;51986;52.788;41.368;2023-07-29T06:01:39;97854.56;;;23.38;62.03
65384;BME280;51986;52.788;41.368;2023-07-29T06:04:06;97847.03;;;23.50;62.01
65384;BME280;51986;52.788;41.368;2023-07-29T06:06:34;97788.38;;;23.16;62.95
65384;BME280;51986;52.788;41.368;2023-07-29T06:09:01;97837.22;;;23.20;63.69
65384;BME280;51986;52.788;41.368;2023-07-29T06:11:28;97853.91;;;23.19;63.06
65384;BME280;51986;52.788;41.368;2023-07-29T06:13:55;97849.72;;;23.37;63.11
65384;BME280;51986;52.788;41.368;2023-07-29T06:16:22;97866.69;;;23.45;62.57
65384;BME280;51986;52.788;41.368;2023-07-29T06:18:49;97860.75;;;23.65;61.99
65384;BME280;51986;52.788;41.368;2023-07-29T06:21:16;97878.19;;;23.45;62.94
65384;BME280;51986;52.788;41.368;2023-07-29T06:23:44;97880.81;;;23.51;62.18
65384;BME280;51986;52.788;41.368;2023-07-29T06:26:11;97854.47;;;23.44;62.34
65384;BME280;51986;52.788;41.368;2023-07-29T06:28:38;97833.81;;;23.52;62.86
65384;BME280;51986;52.788;41.368;2023-07-29T06:31:05;97827.22;;;23.66;63.16
65384;BME280;51986;52.788;41.368;2023-07-29T06:33:32;97871.41;;;23.57;62.80
65384;BME280;51986;52.788;41.368;2023-07-29T06:35:59;97849.56;;;23.74;62.07
65384;BME280;51986;52.788;41.368;2023-07-29T06:38:26;97844.41;;;24.03;61.99
65384;BME280;51986;52.788;41.368;2023-07-29T06:40:53;97818.41;;;24.32;60.98
65384;BME280;51986;52.788;41.368;2023-07-29T06:43:20;97838.34;;;24.63;60.82
65384;BME280;51986;52.788;41.368;2023-07-29T06:45:47;97822.78;;;24.69;58.60
65384;BME280;51986;52.788;41.368;2023-07-29T06:48:14;97832.69;;;24.88;58.87
65384;BME280;51986;52.788;41.368;2023-07-29T06:50:41;97817.47;;;24.77;58.77
65384;BME280;51986;52.788;41.368;2023-07-29T06:53:09;97830.75;;;24.75;58.59
65384;BME280;51986;52.788;41.368;2023-07-29T06:55:35;97833.53;;;24.82;58.74
65384;BME280;51986;52.788;41.368;2023-07-29T06:58:03;97857.34;;;24.92;59.34
65384;BME280;51986;52.788;41.368;2023-07-29T07:00:30;97828.38;;;25.26;57.26
65384;BME280;51986;52.788;41.368;2023-07-29T07:02:57;97829.09;;;25.27;58.00
65384;BME280;51986;52.788;41.368;2023-07-29T07:05:24;97846.72;;;25.49;57.49
65384;BME280;51986;52.788;41.368;2023-07-29T07:07:51;97812.94;;;25.55;57.90
65384;BME280;51986;52.788;41.368;2023-07-29T07:10:18;97824.03;;;26.01;55.91
65384;BME280;51986;52.788;41.368;2023-07-29T07:12:46;97845.59;;;26.22;55.15
65384;BME280;51986;52.788;41.368;2023-07-29T07:15:13;97820.16;;;26.18;55.25
65384;BME280;51986;52.788;41.368;2023-07-29T07:17:40;97843.53;;;26.44;54.30
65384;BME280;51986;52.788;41.368;2023-07-29T07:20:07;97843.66;;;26.90;52.93
65384;BME280;51986;52.788;41.368;2023-07-29T07:22:34;97811.94;;;26.90;53.65
65384;BME280;51986;52.788;41.368;2023-07-29T07:25:01;97834.06;;;26.81;53.54
65384;BME280;51986;52.788;41.368;2023-07-29T07:27:28;97812.38;;;26.50;53.74
65384;BME280;51986;52.788;41.368;2023-07-29T07:29:55;97810.44;;;26.81;53.25
65384;BME280;51986;52.788;41.368;2023-07-29T07:32:22;97810.31;;;26.95;53.39
65384;BME280;51986;52.788;41.368;2023-07-29T07:34:49;97826.72;;;27.20;52.98
65384;BME280;51986;52.788;41.368;2023-07-29T07:37:16;97811.41;;;27.37;52.65
65384;BME280;51986;52.788;41.368;2023-07-29T07:39:43;97786.88;;;27.12;51.22
65384;BME280;51986;52.788;41.368;2023-07-29T07:42:10;97805.06;;;27.43;50.25
65384;BME280;51986;52.788;41.368;2023-07-29T07:44:37;97795.09;;;27.83;49.78
65384;BME280;51986;52.788;41.368;2023-07-29T07:47:04;97779.25;;;27.64;49.38
65384;BME280;51986;52.788;41.368;2023-07-29T07:49:32;97808.53;;;27.51;50.04
65384;BME280;51986;52.788;41.368;2023-07-29T07:51:59;97807.75;;;27.88;49.75
65384;BME280;51986;52.788;41.368;2023-07-29T07:54:26;97818.34;;;28.17;47.65
65384;BME280;51986;52.788;41.368;2023-07-29T07:56:53;97791.56;;;28.21;48.28
65384;BME280;51986;52.788;41.368;2023-07-29T07:59:20;97802.66;;;27.93;48.21
65384;BME280;51986;52.788;41.368;2023-07-29T08:01:47;97782.69;;;27.65;50.00
65384;BME280;51986;52.788;41.368;2023-07-29T08:04:14;97786.09;;;28.29;47.34
65384;BME280;51986;52.788;41.368;2023-07-29T08:06:41;97788.09;;;28.28;46.91
65384;BME280;51986;52.788;41.368;2023-07-29T08:09:08;97785.00;;;28.32;46.95
65384;BME280;51986;52.788;41.368;2023-07-29T08:11:34;97805.66;;;28.60;44.27
65384;BME280;51986;52.788;41.368;2023-07-29T08:14:02;97800.91;;;28.68;45.10
65384;BME280;51986;52.788;41.368;2023-07-29T08:16:29;97758.78;;;28.67;44.34
65384;BME280;51986;52.788;41.368;2023-07-29T08:18:56;97789.03;;;28.88;44.19
65384;BME280;51986;52.788;41.368;2023-07-29T08:21:23;97774.22;;;29.32;43.17
65384;BME280;51986;52.788;41.368;2023-07-29T08:23:49;97761.69;;;29.36;42.12
65384;BME280;51986;52.788;41.368;2023-07-29T08:26:16;97769.59;;;29.42;42.42
65384;BME280;51986;52.788;41.368;2023-07-29T08:28:43;97764.25;;;29.69;41.15
65384;BME280;51986;52.788;41.368;2023-07-29T08:31:10;97777.84;;;29.86;41.03
65384;BME280;51986;52.788;41.368;2023-07-29T08:33:37;97764.75;;;29.40;40.38
65384;BME280;51986;52.788;41.368;2023-07-29T08:36:04;97780.84;;;29.21;41.94
65384;BME280;51986;52.788;41.368;2023-07-29T08:38:31;97766.41;;;29.53;42.20
65384;BME280;51986;52.788;41.368;2023-07-29T08:41:14;97784.56;;;29.85;41.03
65384;BME280;51986;52.788;41.368;2023-07-29T08:43:59;97788.66;;;29.77;40.51
65384;BME280;51986;52.788;41.368;2023-07-29T08:46:29;97777.53;;;30.00;41.15
65384;BME280;51986;52.788;41.368;2023-07-29T08:48:56;97754.66;;;29.68;41.56
65384;BME280;51986;52.788;41.368;2023-07-29T08:51:24;97669.50;;;29.38;41.54
65384;BME280;51986;52.788;41.368;2023-07-29T08:53:51;97766.81;;;29.67;39.47
65384;BME280;51986;52.788;41.368;2023-07-29T08:56:19;97730.13;;;29.58;39.62
65384;BME280;51986;52.788;41.368;2023-07-29T08:58:46;97771.13;;;30.05;38.39
65384;BME280;51986;52.788;41.368;2023-07-29T09:01:14;97747.16;;;30.21;38.49
65384;BME280;51986;52.788;41.368;2023-07-29T09:03:42;97751.31;;;29.95;37.76
65384;BME280;51986;52.788;41.368;2023-07-29T09:06:09;97767.16;;;29.88;38.65
65384;BME280;51986;52.788;41.368;2023-07-29T09:08:36;97754.59;;;29.93;37.66
65384;BME280;51986;52.788;41.368;2023-07-29T09:11:03;97740.66;;;30.60;36.90
65384;BME280;51986;52.788;41.368;2023-07-29T09:13:30;97718.66;;;30.76;35.46
65384;BME280;51986;52.788;41.368;2023-07-29T09:15:58;97755.81;;;30.90;35.30
65384;BME280;51986;52.788;41.368;2023-07-29T09:18:26;97774.66;;;30.79;36.04
65384;BME280;51986;52.788;41.368;2023-07-29T09:20:54;97730.63;;;31.00;36.39
65384;BME280;51986;52.788;41.368;2023-07-29T09:23:25;97769.88;;;30.69;36.54
65384;BME280;51986;52.788;41.368;2023-07-29T09:26:01;97749.66;;;30.90;36.05
65384;BME280;51986;52.788;41.368;2023-07-29T09:28:33;97727.16;;;30.89;36.39
65384;BME280;51986;52.788;41.368;2023-07-29T09:31:00;97742.81;;;30.62;35.38
65384;BME280;51986;52.788;41.368;2023-07-29T09:33:28;97739.94;;;30.69;34.61
65384;BME280;51986;52.788;41.368;2023-07-29T09:35:55;97738.28;;;30.84;35.71
65384;BME280;51986;52.788;41.368;2023-07-29T09:38:29;97713.31;;;30.68;36.04
65384;BME280;51986;52.788;41.368;2023-07-29T09:40:57;97737.91;;;30.51;36.04
65384;BME280;51986;52.788;41.368;2023-07-29T09:43:32;97733.22;;;30.61;36.21
65384;BME280;51986;52.788;41.368;2023-07-29T09:46:04;97748.31;;;30.45;36.39
65384;BME280;51986;52.788;41.368;2023-07-29T09:48:37;97734.31;;;30.31;37.02
65384;BME280;51986;52.788;41.368;2023-07-29T09:51:12;97720.69;;;30.21;36.95
65384;BME280;51986;52.788;41.368;2023-07-29T09:53:44;97723.59;;;30.06;37.59
65384;BME280;51986;52.788;41.368;2023-07-29T09:56:14;97730.91;;;30.03;37.81
65384;BME280;51986;52.788;41.368;2023-07-29T09:58:44;97715.75;;;29.83;37.99
65384;BME280;51986;52.788;41.368;2023-07-29T10:01:12;97716.47;;;29.83;37.33
65384;BME280;51986;52.788;41.368;2023-07-29T10:03:40;97716.47;;;29.83;37.56
65384;BME280;51986;52.788;41.368;2023-07-29T10:06:07;97682.91;;;29.71;36.84
65384;BME280;51986;52.788;41.368;2023-07-29T10:08:34;97711.03;;;29.83;37.92
65384;BME280;51986;52.788;41.368;2023-07-29T10:11:02;97701.91;;;29.71;38.11
65384;BME280;51986;52.788;41.368;2023-07-29T10:13:29;97716.06;;;29.70;38.60
65384;BME280;51986;52.788;41.368;2023-07-29T10:15:56;97677.50;;;29.36;39.52
65384;BME280;51986;52.788;41.368;2023-07-29T10:18:24;97684.44;;;29.30;38.73
65384;BME280;51986;52.788;41.368;2023-07-29T10:20:52;97669.91;;;29.35;39.46
65384;BME280;51986;52.788;41.368;2023-07-29T10:23:22;97672.16;;;29.29;39.57
65384;BME280;51986;52.788;41.368;2023-07-29T10:25:57;97686.28;;;29.45;39.96
65384;BME280;51986;52.788;41.368;2023-07-29T10:28:26;97696.34;;;29.52;39.41
65384;BME280;51986;52.788;41.368;2023-07-29T10:30:57;97647.44;;;29.69;38.61
65384;BME280;51986;52.788;41.368;2023-07-29T10:33:24;97655.03;;;29.98;36.85
65384;BME280;51986;52.788;41.368;2023-07-29T10:35:52;97664.78;;;30.01;36.73
65384;BME280;51986;52.788;41.368;2023-07-29T10:38:24;97674.31;;;29.92;37.19
65384;BME280;51986;52.788;41.368;2023-07-29T10:40:54;97680.50;;;30.02;37.56
65384;BME280;51986;52.788;41.368;2023-07-29T10:43:31;97658.00;;;30.19;36.66
65384;BME280;51986;52.788;41.368;2023-07-29T10:54:12;97673.19;;;30.22;35.57
65384;BME280;51986;52.788;41.368;2023-07-29T10:56:41;97652.41;;;30.17;34.62
65384;BME280;51986;52.788;41.368;2023-07-29T11:01:40;97616.22;;;30.80;33.87
65384;BME280;51986;52.788;41.368;2023-07-29T11:12:46;97609.78;;;31.63;32.90
65384;BME280;51986;52.788;41.368;2023-07-29T11:20:16;97605.13;;;31.94;30.08
65384;BME280;51986;52.788;41.368;2023-07-29T11:22:43;97596.09;;;31.82;30.40
65384;BME280;51986;52.788;41.368;2023-07-29T11:25:12;97590.50;;;31.80;30.13
65384;BME280;51986;52.788;41.368;2023-07-29T11:27:40;97604.25;;;31.82;29.70
65384;BME280;51986;52.788;41.368;2023-07-29T11:30:09;97582.34;;;31.71;29.80
65384;BME280;51986;52.788;41.368;2023-07-29T11:32:37;97574.28;;;31.82;30.10
65384;BME280;51986;52.788;41.368;2023-07-29T11:35:06;97560.53;;;31.80;30.45
65384;BME280;51986;52.788;41.368;2023-07-29T11:37:34;97572.25;;;31.83;30.02
65384;BME280;51986;52.788;41.368;2023-07-29T11:40:01;97601.84;;;32.17;29.67
65384;BME280;51986;52.788;41.368;2023-07-29T11:42:32;97561.34;;;31.83;29.97
65384;BME280;51986;52.788;41.368;2023-07-29T11:44:59;97528.13;;;31.65;29.19
65384;BME280;51986;52.788;41.368;2023-07-29T11:47:26;97525.56;;;31.67;30.07
65384;BME280;51986;52.788;41.368;2023-07-29T11:49:53;97496.38;;;31.79;28.97
65384;BME280;51986;52.788;41.368;2023-07-29T11:52:20;97550.59;;;32.16;28.60
65384;BME280;51986;52.788;41.368;2023-07-29T11:54:48;97510.34;;;32.05;29.14
65384;BME280;51986;52.788;41.368;2023-07-29T11:57:16;97531.88;;;31.60;29.59
65384;BME280;51986;52.788;41.368;2023-07-29T11:59:44;97555.50;;;31.77;29.32
65384;BME280;51986;52.788;41.368;2023-07-29T12:02:14;97563.97;;;31.81;28.72
65384;BME280;51986;52.788;41.368;2023-07-29T12:04:44;97537.69;;;31.85;29.38
65384;BME280;51986;52.788;41.368;2023-07-29T12:07:13;97542.34;;;31.63;29.87
65384;BME280;51986;52.788;41.368;2023-07-29T12:09:41;97536.78;;;31.61;29.65
65384;BME280;51986;52.788;41.368;2023-07-29T12:12:09;97549.88;;;31.43;30.55
65384;BME280;51986;52.788;41.368;2023-07-29T12:14:36;97542.13;;;31.40;30.25
65384;BME280;51986;52.788;41.368;2023-07-29T12:17:05;97579.97;;;31.46;30.22
65384;BME280;51986;52.788;41.368;2023-07-29T12:19:36;97545.25;;;31.36;30.81
65384;BME280;51986;52.788;41.368;2023-07-29T12:22:06;97550.97;;;31.60;30.10
65384;BME280;51986;52.788;41.368;2023-07-29T12:24:36;97524.75;;;31.45;30.48
65384;BME280;51986;52.788;41.368;2023-07-29T12:27:03;97543.03;;;31.74;31.12
65384;BME280;51986;52.788;41.368;2023-07-29T12:29:30;97573.88;;;31.76;30.90
65384;BME280;51986;52.788;41.368;2023-07-29T12:32:02;97535.50;;;31.53;31.26
65384;BME280;51986;52.788;41.368;2023-07-29T12:34:30;97535.78;;;31.57;31.23
65384;BME280;51986;52.788;41.368;2023-07-29T12:36:58;97541.22;;;31.57;31.17
65384;BME280;51986;52.788;41.368;2023-07-29T12:39:27;97535.66;;;31.35;30.58
65384;BME280;51986;52.788;41.368;2023-07-29T12:41:57;97531.22;;;31.30;30.37
65384;BME280;51986;52.788;41.368;2023-07-29T12:44:25;97495.84;;;31.21;30.51
65384;BME280;51986;52.788;41.368;2023-07-29T12:46:52;97513.19;;;31.25;31.40
65384;BME280;51986;52.788;41.368;2023-07-29T12:49:19;97508.63;;;31.18;31.50
65384;BME280;51986;52.788;41.368;2023-07-29T12:51:46;97490.72;;;31.15;31.96
65384;BME280;51986;52.788;41.368;2023-07-29T12:54:14;97509.72;;;31.44;31.15
65384;BME280;51986;52.788;41.368;2023-07-29T12:56:40;97506.41;;;31.36;31.12
65384;BME280;51986;52.788;41.368;2023-07-29T12:59:07;97518.78;;;31.27;31.61
65384;BME280;51986;52.788;41.368;2023-07-29T13:01:34;97495.28;;;31.12;32.52
65384;BME280;51986;52.788;41.368;2023-07-29T13:04:02;97488.06;;;31.36;32.87
65384;BME280;51986;52.788;41.368;2023-07-29T13:06:29;97489.34;;;31.35;33.02
65384;BME280;51986;52.788;41.368;2023-07-29T13:08:58;97500.03;;;31.12;32.82
65384;BME280;51986;52.788;41.368;2023-07-29T13:11:25;97494.75;;;31.04;33.63
65384;BME280;51986;52.788;41.368;2023-07-29T13:13:53;97465.91;;;31.11;32.96
65384;BME280;51986;52.788;41.368;2023-07-29T13:16:20;97463.81;;;30.80;34.10
65384;BME280;51986;52.788;41.368;2023-07-29T13:18:47;97465.84;;;30.70;34.47
65384;BME280;51986;52.788;41.368;2023-07-29T13:21:14;97462.81;;;30.66;33.80
65384;BME280;51986;52.788;41.368;2023-07-29T13:23:40;97473.44;;;30.42;33.77